Time;durP1;ratioP1;P1;durP2;ratioP2;P2;SDS_P1;SDS_P2;PMS_P1;PMS_P2;Temp;Humidity;BMP_temperature;BMP_pressure;BME280_temperature;BME280_humidity;BME280_pressure;Samples;Min_cycle;Max_cycle;Signal;HPM_P1;HPM_P2
2023/11/15 00:01:34;;;;;;;2.27;0.80;;;;;;;12.31;89.98;97594.03;4170969;28;21273;-87
2023/11/15 00:03:38;;;;;;;3.30;1.37;;;;;;;12.34;91.49;97590.31;4174546;28;21288;-87
2023/11/15 00:05:41;;;;;;;2.10;0.77;;;;;;;12.36;89.97;97593.66;4174501;28;20691;-87
2023/11/15 00:07:44;;;;;;;4.30;1.00;;;;;;;12.38;90.11;97595.16;4160042;28;20673;-87
2023/11/15 00:09:48;;;;;;;2.80;0.80;;;;;;;12.41;89.87;97594.09;4173904;28;21214;-87
2023/11/15 00:12:11;;;;;;;4.00;1.13;;;;;;;12.40;91.09;97597.66;4185026;28;20667;-87
2023/11/15 00:14:14;;;;;;;5.70;0.80;;;;;;;12.40;91.07;97603.75;4188797;28;20631;-87
2023/11/15 00:16:18;;;;;;;2.53;0.90;;;;;;;12.42;90.30;97606.22;4176903;28;20636;-88
2023/11/15 00:18:21;;;;;;;3.63;0.80;;;;;;;12.40;89.94;97621.19;4188409;28;20723;-87
2023/11/15 00:20:25;;;;;;;2.60;0.80;;;;;;;12.33;91.09;97607.81;4160992;28;20624;-87
2023/11/15 00:22:28;;;;;;;4.70;1.27;;;;;;;12.38;91.97;97610.03;4188892;28;20633;-87
2023/11/15 00:24:32;;;;;;;3.10;1.00;;;;;;;12.41;90.93;97620.25;4163137;28;20724;-88
2023/11/15 00:26:36;;;;;;;2.83;1.00;;;;;;;12.38;91.68;97620.50;4162028;28;20625;-87
2023/11/15 00:28:39;;;;;;;4.57;0.90;;;;;;;12.41;91.30;97630.72;4159043;28;20613;-88
2023/11/15 00:30:42;;;;;;;1.70;0.80;;;;;;;12.43;92.39;97634.03;4190496;28;20709;-88
2023/11/15 00:32:45;;;;;;;3.63;1.10;;;;;;;12.41;92.81;97638.56;4175966;28;20652;-87
2023/11/15 00:34:49;;;;;;;4.80;1.20;;;;;;;12.42;91.83;97630.59;4176425;28;20617;-87
2023/11/15 00:36:53;;;;;;;4.27;1.00;;;;;;;12.39;93.02;97635.25;4173990;28;21202;-87
2023/11/15 00:38:59;;;;;;;2.57;0.90;;;;;;;12.39;92.90;97643.09;4173231;28;20620;-87
2023/11/15 00:41:03;;;;;;;2.13;0.80;;;;;;;12.37;92.99;97642.38;4170847;28;20628;-87
2023/11/15 00:43:08;;;;;;;2.70;0.90;;;;;;;12.35;93.36;97646.91;4175583;28;20635;-88
2023/11/15 00:45:30;;;;;;;2.97;0.90;;;;;;;12.30;91.99;97649.09;4172760;28;20617;-88
2023/11/15 00:47:34;;;;;;;2.30;0.77;;;;;;;12.29;92.73;97661.31;4177217;28;20629;-88
2023/11/15 00:49:38;;;;;;;3.60;1.10;;;;;;;12.29;92.67;97660.47;4162260;28;20629;-87
2023/11/15 00:51:41;;;;;;;2.07;0.80;;;;;;;12.33;93.22;97672.38;4161615;28;20649;-87
2023/11/15 00:53:45;;;;;;;2.20;0.90;;;;;;;12.33;92.39;97683.66;4160453;28;21211;-87
2023/11/15 00:55:48;;;;;;;2.10;1.00;;;;;;;12.32;94.16;97675.94;4176299;28;20632;-87
2023/11/15 00:57:52;;;;;;;3.67;1.37;;;;;;;12.29;93.73;97697.09;4190645;28;20627;-87
2023/11/15 00:59:56;;;;;;;2.43;1.07;;;;;;;12.29;94.34;97697.09;4172378;28;20620;-87
2023/11/15 01:02:02;;;;;;;4.43;1.00;;;;;;;12.28;93.76;97698.88;4174038;28;20632;-88
2023/11/15 01:04:07;;;;;;;2.60;1.00;;;;;;;12.25;93.92;97706.97;4177566;28;20632;-87
2023/11/15 01:06:09;;;;;;;1.80;0.80;;;;;;;12.22;94.76;97709.00;4179267;28;20632;-87
2023/11/15 01:08:31;;;;;;;4.23;1.00;;;;;;;12.20;95.75;97710.91;4178728;28;20624;-87
2023/11/15 01:10:34;;;;;;;3.53;0.93;;;;;;;12.24;95.99;97712.34;4179462;28;20617;-87
2023/11/15 01:12:36;;;;;;;3.70;1.00;;;;;;;12.23;95.45;97711.47;4171761;28;20664;-87
2023/11/15 01:14:40;;;;;;;2.67;0.80;;;;;;;12.22;94.72;97718.63;4191637;28;21045;-87
2023/11/15 01:16:45;;;;;;;1.50;0.70;;;;;;;12.18;94.88;97715.44;4160949;28;20636;-87
2023/11/15 01:18:48;;;;;;;3.80;0.90;;;;;;;12.13;95.61;97714.97;4166909;28;20633;-87
2023/11/15 01:21:11;;;;;;;4.03;1.17;;;;;;;12.14;95.79;97719.25;4178231;28;20655;-88
2023/11/15 01:23:15;;;;;;;3.37;1.20;;;;;;;12.18;96.58;97723.28;4174054;28;21261;-88
2023/11/15 01:25:20;;;;;;;2.00;0.80;;;;;;;12.12;94.42;97717.69;4173327;28;20622;-86
2023/11/15 01:27:22;;;;;;;2.60;1.10;;;;;;;12.13;94.66;97721.97;4173623;28;21100;-88
2023/11/15 01:29:25;;;;;;;2.17;0.80;;;;;;;12.13;95.35;97730.66;4186324;28;20623;-87
2023/11/15 01:31:28;;;;;;;3.30;0.90;;;;;;;12.13;93.93;97728.03;4171258;28;20703;-88
2023/11/15 01:33:32;;;;;;;2.77;0.90;;;;;;;12.11;95.06;97740.41;4176628;28;21009;-88
2023/11/15 01:35:36;;;;;;;1.60;0.73;;;;;;;12.13;95.21;97735.88;4173244;28;20629;-88
2023/11/15 01:37:39;;;;;;;2.80;0.90;;;;;;;12.14;94.84;97737.53;4159454;28;20618;-88
2023/11/15 01:39:43;;;;;;;2.50;1.10;;;;;;;12.16;93.91;97742.66;4191639;28;20751;-88
2023/11/15 01:41:49;;;;;;;3.23;0.97;;;;;;;12.13;93.87;97746.31;4181789;28;20624;-87
2023/11/15 01:43:53;;;;;;;2.90;1.07;;;;;;;12.09;95.31;97739.72;4174060;28;20633;-87
2023/11/15 01:45:56;;;;;;;2.40;0.90;;;;;;;12.09;94.66;97742.31;4186298;28;20608;-88
2023/11/15 01:47:59;;;;;;;3.17;1.10;;;;;;;12.09;94.08;97760.63;4155910;28;20729;-88
2023/11/15 01:50:05;;;;;;;2.33;0.83;;;;;;;12.08;94.80;97745.06;4175390;28;20628;-87
2023/11/15 01:52:09;;;;;;;3.50;1.10;;;;;;;12.07;94.93;97743.38;4174461;28;21258;-87
2023/11/15 01:54:13;;;;;;;2.80;1.03;;;;;;;12.10;95.97;97758.81;4172407;28;20616;-88
2023/11/15 01:56:16;;;;;;;3.03;0.97;;;;;;;12.09;95.13;97750.16;4172560;28;20636;-87
2023/11/15 01:58:20;;;;;;;3.13;1.00;;;;;;;12.08;95.26;97756.34;4170732;28;20631;-87
2023/11/15 02:00:23;;;;;;;3.70;1.13;;;;;;;12.08;93.76;97747.66;4169444;28;20604;-87
2023/11/15 02:02:26;;;;;;;2.73;1.00;;;;;;;12.13;95.25;97761.19;4170826;28;20632;-88
2023/11/15 02:04:30;;;;;;;4.07;1.20;;;;;;;12.15;94.93;97751.44;4175847;28;21224;-88
2023/11/15 02:06:35;;;;;;;4.00;1.20;;;;;;;12.14;94.07;97748.00;4174710;28;20625;-87
2023/11/15 02:08:39;;;;;;;5.60;1.50;;;;;;;12.11;93.52;97758.69;4159918;28;20621;-87
2023/11/15 02:11:01;;;;;;;2.60;1.33;;;;;;;12.12;94.26;97749.06;4176833;28;21014;-88
2023/11/15 02:13:04;;;;;;;2.00;1.03;;;;;;;12.13;94.63;97756.78;4166261;28;20650;-87
2023/11/15 02:15:09;;;;;;;4.27;2.23;;;;;;;12.12;92.82;97755.16;4154528;28;20626;-88
2023/11/15 02:17:11;;;;;;;3.07;1.47;;;;;;;12.14;92.90;97749.78;4161323;28;20637;-88
2023/11/15 02:19:33;;;;;;;4.07;0.90;;;;;;;12.13;94.35;97761.19;4171901;28;20739;-88
2023/11/15 02:21:38;;;;;;;7.13;1.10;;;;;;;12.13;93.91;97754.16;4173069;28;20621;-87
2023/11/15 02:23:43;;;;;;;2.10;0.80;;;;;;;12.13;92.07;97777.69;4176725;28;20625;-87
2023/11/15 02:25:46;;;;;;;2.70;1.10;;;;;;;12.13;92.81;97772.47;4163733;28;20621;-87
2023/11/15 02:27:49;;;;;;;3.10;0.97;;;;;;;12.16;92.94;97787.09;4183361;28;21055;-88
2023/11/15 02:29:51;;;;;;;3.70;1.13;;;;;;;12.16;93.20;97792.31;4184798;28;20697;-87
2023/11/15 02:31:55;;;;;;;6.80;1.27;;;;;;;12.17;93.26;97794.00;4167256;28;20648;-88
2023/11/15 02:33:58;;;;;;;2.90;0.87;;;;;;;12.18;93.26;97800.88;4172624;28;20667;-88
2023/11/15 02:36:01;;;;;;;2.40;1.07;;;;;;;12.18;91.90;97806.94;4176919;28;20627;-88
2023/11/15 02:38:05;;;;;;;3.97;0.83;;;;;;;12.18;92.73;97806.09;4173484;28;21043;-88
2023/11/15 02:40:11;;;;;;;3.03;1.00;;;;;;;12.19;93.17;97800.75;4168492;28;20619;-88
2023/11/15 02:42:14;;;;;;;4.07;1.23;;;;;;;12.17;93.08;97801.84;4174475;28;21241;-88
2023/11/15 02:44:17;;;;;;;2.50;0.90;;;;;;;12.17;93.44;97810.50;4154244;28;21283;-87
2023/11/15 02:46:22;;;;;;;1.80;0.90;;;;;;;12.18;92.10;97812.16;4159453;28;20609;-87
2023/11/15 02:48:26;;;;;;;2.80;1.03;;;;;;;12.15;93.85;97806.34;4158708;28;20621;-88
2023/11/15 02:50:30;;;;;;;2.00;0.80;;;;;;;12.11;93.69;97816.22;4175689;28;21076;-88
2023/11/15 02:52:35;;;;;;;4.13;1.10;;;;;;;12.10;92.74;97808.50;4173480;28;20672;-88
2023/11/15 02:54:38;;;;;;;2.60;0.97;;;;;;;12.08;93.78;97813.84;4174001;28;20629;-87
2023/11/15 02:56:42;;;;;;;3.43;0.80;;;;;;;12.04;94.72;97814.19;4156088;28;20652;-87
2023/11/15 02:58:45;;;;;;;2.77;1.07;;;;;;;12.03;93.98;97813.38;4169289;28;20621;-87
2023/11/15 03:00:49;;;;;;;2.90;0.97;;;;;;;12.02;95.64;97819.53;4173229;28;20629;-87
2023/11/15 03:02:52;;;;;;;5.43;1.30;;;;;;;12.03;95.84;97828.25;4158323;28;20629;-88
2023/11/15 03:04:54;;;;;;;4.13;1.07;;;;;;;12.01;95.15;97820.53;4176659;28;21197;-87
2023/11/15 03:06:58;;;;;;;4.50;1.37;;;;;;;11.98;95.39;97830.34;4187678;28;20625;-88
2023/11/15 03:09:00;;;;;;;4.27;1.57;;;;;;;11.95;97.41;97836.69;4175102;28;21197;-87
2023/11/15 03:11:04;;;;;;;5.13;1.27;;;;;;;11.95;95.52;97841.91;4170977;28;20644;-87
2023/11/15 03:13:09;;;;;;;3.77;1.20;;;;;;;11.94;96.80;97835.00;4161296;28;20676;-88
2023/11/15 03:15:13;;;;;;;3.80;1.70;;;;;;;11.92;96.02;97852.59;4173695;28;21178;-88
2023/11/15 03:17:17;;;;;;;3.87;1.10;;;;;;;11.92;97.46;97849.13;4174718;28;20624;-87
2023/11/15 03:19:21;;;;;;;3.70;1.10;;;;;;;11.87;98.93;97852.09;4167467;28;20638;-87
2023/11/15 03:21:23;;;;;;;4.63;1.50;;;;;;;11.88;99.82;97856.38;4154388;28;20627;-88
2023/11/15 03:23:44;;;;;;;3.13;1.30;;;;;;;11.83;99.32;97863.75;4187288;28;20620;-87
2023/11/15 03:25:50;;;;;;;4.80;1.40;;;;;;;11.82;100.00;97863.88;4176669;28;20620;-87
2023/11/15 03:27:53;;;;;;;6.33;1.43;;;;;;;11.81;98.90;97872.66;4187640;28;21177;-87
2023/11/15 03:29:58;;;;;;;3.70;1.70;;;;;;;11.84;98.75;97872.41;4157388;28;21054;-87
2023/11/15 03:32:00;;;;;;;3.07;1.30;;;;;;;11.84;99.15;97880.25;4155659;28;20646;-87
2023/11/15 03:34:04;;;;;;;3.10;1.20;;;;;;;11.87;100.00;97886.06;4175605;28;20647;-88
2023/11/15 03:36:09;;;;;;;6.67;1.53;;;;;;;11.84;99.72;97875.03;4162928;28;20628;-88
2023/11/15 03:38:13;;;;;;;3.43;1.43;;;;;;;11.84;99.80;97886.31;4178723;28;21112;-88
2023/11/15 03:40:19;;;;;;;4.23;1.30;;;;;;;11.88;98.78;97892.97;4176571;28;20644;-88
2023/11/15 03:42:22;;;;;;;4.50;1.30;;;;;;;11.90;99.27;97890.25;4165099;28;20724;-87
2023/11/15 03:44:25;;;;;;;2.10;1.20;;;;;;;11.89;98.59;97901.63;4155768;28;20623;-87
2023/11/15 03:46:30;;;;;;;4.03;1.40;;;;;;;11.92;98.58;97906.63;4173838;28;20629;-88
2023/11/15 03:48:33;;;;;;;3.57;1.40;;;;;;;11.95;98.56;97902.00;4170295;28;21451;-87
2023/11/15 03:50:36;;;;;;;4.30;1.50;;;;;;;11.95;99.82;97915.09;4175295;28;21174;-87
2023/11/15 03:52:40;;;;;;;6.70;2.17;;;;;;;11.98;98.64;97911.38;4160196;28;21199;-87
2023/11/15 03:55:01;;;;;;;6.13;1.43;;;;;;;11.98;98.91;97921.84;4187890;28;20663;-87
2023/11/15 03:57:07;;;;;;;3.77;1.00;;;;;;;11.97;97.79;97923.63;4187470;28;20649;-87
2023/11/15 03:59:10;;;;;;;5.10;1.27;;;;;;;11.95;97.72;97925.53;4172826;28;20655;-87
2023/11/15 04:01:13;;;;;;;2.03;1.00;;;;;;;11.93;97.67;97916.13;4156791;28;20713;-86
2023/11/15 04:03:18;;;;;;;5.10;1.23;;;;;;;11.98;96.08;97930.53;4162536;28;20663;-88
2023/11/15 04:05:27;;;;;;;3.30;1.37;;;;;;;11.95;97.88;97925.53;4186676;28;20689;-87
2023/11/15 04:07:31;;;;;;;3.17;1.30;;;;;;;11.92;95.65;97928.38;4176755;28;20620;-88
2023/11/15 04:09:34;;;;;;;2.50;1.17;;;;;;;11.95;96.52;97935.13;4162574;28;20632;-88
2023/11/15 04:11:40;;;;;;;5.00;1.30;;;;;;;11.99;96.34;97933.97;4175229;28;20632;-88
2023/11/15 04:13:43;;;;;;;4.83;1.20;;;;;;;12.00;96.19;97931.22;4191224;28;20664;-87
2023/11/15 04:15:46;;;;;;;4.00;1.40;;;;;;;11.98;96.23;97935.75;4176588;28;20620;-88
2023/11/15 04:17:48;;;;;;;5.77;1.30;;;;;;;11.98;95.74;97940.97;4189640;28;21177;-87
2023/11/15 04:19:53;;;;;;;3.70;1.13;;;;;;;11.95;94.62;97940.38;4173793;28;21225;-87
2023/11/15 04:21:56;;;;;;;2.60;1.10;;;;;;;11.99;96.52;97953.09;4190169;28;21029;-88
2023/11/15 04:24:17;;;;;;;2.83;1.17;;;;;;;11.99;94.98;97947.03;4189245;28;20654;-87
2023/11/15 04:26:21;;;;;;;2.97;1.27;;;;;;;12.00;95.94;97951.31;4176946;28;20628;-87
2023/11/15 04:28:24;;;;;;;3.00;1.27;;;;;;;12.00;95.32;97948.72;4187542;28;20616;-86
2023/11/15 04:30:31;;;;;;;3.17;1.10;;;;;;;11.94;95.33;97950.00;4189772;28;20711;-87
2023/11/15 04:32:34;;;;;;;4.87;1.30;;;;;;;11.92;96.58;97954.53;4178755;28;20608;-86
2023/11/15 04:34:57;;;;;;;4.30;1.10;;;;;;;11.91;97.00;97965.91;4185127;28;20722;-87
2023/11/15 04:37:01;;;;;;;5.80;1.50;;;;;;;11.92;95.34;97966.72;4171942;28;21411;-88
2023/11/15 04:39:24;;;;;;;4.50;1.23;;;;;;;11.94;96.29;97970.91;4177200;28;21217;-87
2023/11/15 04:41:47;;;;;;;4.23;2.03;;;;;;;11.95;96.55;97975.19;4191188;28;21025;-87
2023/11/15 04:43:50;;;;;;;5.40;1.30;;;;;;;11.99;96.42;97981.00;4173339;28;20664;-87
2023/11/15 04:45:54;;;;;;;2.97;1.60;;;;;;;11.98;96.98;97974.97;4192665;28;21277;-87
2023/11/15 04:47:57;;;;;;;2.70;1.20;;;;;;;11.96;97.06;97984.69;4192240;28;20721;-87
2023/11/15 04:50:02;;;;;;;4.63;1.20;;;;;;;11.98;95.88;97979.34;4157991;28;20740;-88
2023/11/15 04:52:05;;;;;;;3.47;1.20;;;;;;;11.96;96.16;97979.44;4187895;28;21216;-87
2023/11/15 04:54:10;;;;;;;5.43;1.50;;;;;;;11.96;97.47;97974.22;4177193;28;20703;-87
2023/11/15 04:56:13;;;;;;;5.10;1.40;;;;;;;11.98;97.35;97985.41;4189486;28;20650;-87
2023/11/15 04:58:16;;;;;;;3.70;1.30;;;;;;;11.97;96.54;97983.75;4173604;28;20636;-88
2023/11/15 05:00:20;;;;;;;4.70;1.67;;;;;;;11.99;95.46;97987.06;4187845;28;20630;-88
2023/11/15 05:02:22;;;;;;;4.50;1.40;;;;;;;11.97;95.98;97983.75;4173670;28;20683;-87
2023/11/15 05:04:26;;;;;;;4.70;1.50;;;;;;;11.95;96.21;97984.78;4184894;28;20656;-87
2023/11/15 05:06:30;;;;;;;3.50;1.30;;;;;;;11.96;97.80;97989.09;4188854;28;20662;-88
2023/11/15 05:08:32;;;;;;;5.27;1.57;;;;;;;11.91;96.43;97984.19;4187046;28;20639;-87
2023/11/15 05:10:36;;;;;;;5.17;1.27;;;;;;;11.96;96.61;97983.84;4156128;28;20720;-87
2023/11/15 05:12:57;;;;;;;5.13;1.17;;;;;;;11.88;97.54;97989.66;4187275;28;20716;-87
2023/11/15 05:15:00;;;;;;;5.40;1.67;;;;;;;11.87;97.10;97982.75;4173307;28;20688;-88
2023/11/15 05:17:04;;;;;;;9.57;1.60;;;;;;;11.89;97.16;97977.41;4164126;28;20666;-88
2023/11/15 05:19:25;;;;;;;5.00;1.50;;;;;;;11.90;97.37;97984.31;4178590;28;20688;-87
2023/11/15 05:21:28;;;;;;;5.33;1.50;;;;;;;11.91;96.54;97988.59;4171376;28;20637;-89
2023/11/15 05:23:33;;;;;;;3.63;1.20;;;;;;;11.93;96.58;97989.31;4170344;28;20625;-89
2023/11/15 05:25:37;;;;;;;5.87;1.30;;;;;;;11.90;97.00;97986.94;4194130;28;20657;-87
2023/11/15 05:27:41;;;;;;;2.53;1.20;;;;;;;11.88;98.04;97992.28;4158448;28;20707;-87
2023/11/15 05:29:45;;;;;;;3.80;1.20;;;;;;;11.91;97.48;97997.28;4191194;28;20993;-88
2023/11/15 05:31:48;;;;;;;4.33;1.60;;;;;;;11.90;96.03;97997.38;4184523;28;20659;-87
2023/11/15 05:33:52;;;;;;;4.60;1.40;;;;;;;11.92;96.66;98004.16;4172116;28;20636;-87
2023/11/15 05:35:56;;;;;;;3.77;1.27;;;;;;;11.91;96.58;97999.88;4170911;28;20773;-87
2023/11/15 05:37:59;;;;;;;6.87;1.20;;;;;;;11.89;97.48;98009.63;4171349;28;20629;-87
2023/11/15 05:40:05;;;;;;;2.67;1.00;;;;;;;11.86;97.35;98014.22;4184751;28;20640;-88
2023/11/15 05:42:08;;;;;;;6.20;1.50;;;;;;;11.87;98.11;98011.50;4169210;28;20736;-88
2023/11/15 05:44:10;;;;;;;2.90;1.00;;;;;;;11.89;97.67;98016.63;4186060;28;20624;-86
2023/11/15 05:46:13;;;;;;;3.87;1.30;;;;;;;11.85;97.06;98013.41;4180282;28;20660;-86
2023/11/15 05:48:17;;;;;;;5.50;1.43;;;;;;;11.90;97.98;98026.13;4175582;28;20631;-86
2023/11/15 05:50:21;;;;;;;3.53;1.33;;;;;;;11.92;98.19;98030.31;4154647;28;20638;-86
2023/11/15 05:52:23;;;;;;;4.50;1.30;;;;;;;11.93;97.88;98033.75;4175089;28;20655;-86
2023/11/15 05:54:27;;;;;;;5.37;1.30;;;;;;;11.88;98.91;98033.25;4176408;28;20673;-86
2023/11/15 05:56:32;;;;;;;3.07;1.40;;;;;;;11.88;98.38;98033.25;4176065;28;20636;-86
2023/11/15 05:58:36;;;;;;;3.43;1.20;;;;;;;11.80;99.24;98043.41;4163681;28;20724;-86
2023/11/15 06:00:39;;;;;;;3.70;1.20;;;;;;;11.76;100.00;98050.66;4183685;28;21142;-86
2023/11/15 06:02:41;;;;;;;2.93;1.10;;;;;;;11.75;100.00;98042.13;4175490;28;20644;-86
2023/11/15 06:04:44;;;;;;;4.80;1.03;;;;;;;11.75;100.00;98055.19;4172492;28;21260;-86
2023/11/15 06:06:48;;;;;;;1.97;0.90;;;;;;;11.75;100.00;98057.78;4158948;28;20683;-86
2023/11/15 06:08:50;;;;;;;3.07;1.30;;;;;;;11.73;100.00;98062.28;4154969;28;20699;-86
2023/11/15 06:10:56;;;;;;;4.40;1.70;;;;;;;11.72;100.00;98066.69;4171129;28;21218;-86
2023/11/15 06:12:59;;;;;;;5.13;1.70;;;;;;;11.75;100.00;98068.25;4173340;28;20630;-86
2023/11/15 06:15:03;;;;;;;4.17;1.13;;;;;;;11.76;100.00;98075.97;4184180;28;20712;-85
2023/11/15 06:17:07;;;;;;;5.07;1.50;;;;;;;11.77;100.00;98077.63;4183404;28;20625;-85
2023/11/15 06:19:11;;;;;;;4.23;1.00;;;;;;;11.78;100.00;98074.88;4172635;28;21172;-86
2023/11/15 06:21:33;;;;;;;2.90;1.23;;;;;;;11.84;100.00;98084.91;4167706;28;21050;-85
2023/11/15 06:23:36;;;;;;;3.60;1.23;;;;;;;11.85;100.00;98083.13;4155061;28;21030;-86
2023/11/15 06:25:40;;;;;;;5.30;2.40;;;;;;;11.87;100.00;98094.31;4170195;28;21061;-85
2023/11/15 06:27:47;;;;;;;5.23;1.60;;;;;;;11.88;100.00;98093.38;4184881;28;20656;-86
2023/11/15 06:29:52;;;;;;;5.93;1.40;;;;;;;11.84;100.00;98100.56;4166545;28;20676;-85
2023/11/15 06:31:54;;;;;;;4.17;1.40;;;;;;;11.84;100.00;98095.34;4173968;28;20648;-86
2023/11/15 06:33:57;;;;;;;7.30;1.50;;;;;;;11.87;100.00;98105.56;4173138;28;20651;-85
2023/11/15 06:36:02;;;;;;;5.47;1.73;;;;;;;11.88;100.00;98102.03;4157065;28;20667;-86
2023/11/15 06:38:05;;;;;;;4.67;1.53;;;;;;;11.87;100.00;98116.03;4182187;28;20628;-86
2023/11/15 06:40:10;;;;;;;3.17;1.43;;;;;;;11.87;100.00;98107.38;4183145;28;20632;-86
2023/11/15 06:42:13;;;;;;;9.93;1.50;;;;;;;11.89;100.00;98114.16;4156404;28;20641;-85
2023/11/15 06:44:17;;;;;;;4.80;2.07;;;;;;;11.93;100.00;98114.75;4173224;28;20718;-86
2023/11/15 06:46:21;;;;;;;6.20;2.10;;;;;;;11.92;100.00;98113.94;4181192;28;20640;-85
2023/11/15 06:48:24;;;;;;;6.20;1.90;;;;;;;11.97;100.00;98126.66;4166921;28;21183;-86
2023/11/15 06:50:46;;;;;;;4.17;1.40;;;;;;;11.95;100.00;98128.53;4185566;28;20615;-86
2023/11/15 06:53:08;;;;;;;4.50;1.90;;;;;;;11.92;99.85;98131.38;4169969;28;20625;-86
2023/11/15 06:55:11;;;;;;;5.30;1.90;;;;;;;11.92;100.00;98136.59;4166086;28;20628;-86
2023/11/15 06:57:14;;;;;;;2.60;1.20;;;;;;;11.90;100.00;98135.88;4160369;28;20628;-86
2023/11/15 06:59:18;;;;;;;4.97;1.40;;;;;;;11.89;100.00;98139.44;4166160;28;20624;-85
2023/11/15 07:01:23;;;;;;;5.17;1.40;;;;;;;11.89;100.00;98135.06;4188650;28;20674;-86
2023/11/15 07:03:26;;;;;;;3.00;1.30;;;;;;;11.89;100.00;98142.91;4172898;28;21071;-83
2023/11/15 07:05:31;;;;;;;4.30;1.20;;;;;;;11.89;99.70;98150.75;4171491;28;20639;-83
2023/11/15 07:07:52;;;;;;;3.23;1.10;;;;;;;11.88;99.56;98149.06;4170905;28;20621;-85
2023/11/15 07:09:56;;;;;;;3.77;1.40;;;;;;;11.86;100.00;98150.97;4159067;28;20633;-85
2023/11/15 07:11:59;;;;;;;2.53;1.20;;;;;;;11.89;100.00;98155.97;4185716;28;20633;-86
2023/11/15 07:14:02;;;;;;;3.90;1.23;;;;;;;11.92;100.00;98150.53;4175073;28;20682;-85
2023/11/15 07:16:09;;;;;;;3.10;1.50;;;;;;;11.95;100.00;98152.91;4161035;28;20707;-85
2023/11/15 07:18:13;;;;;;;4.60;1.70;;;;;;;11.91;99.98;98156.69;4157191;28;21208;-86
2023/11/15 07:20:20;;;;;;;3.70;1.40;;;;;;;11.91;99.16;98154.06;4166460;28;20736;-85
2023/11/15 07:22:23;;;;;;;7.27;1.80;;;;;;;11.92;99.24;98152.28;4163739;28;20637;-87
2023/11/15 07:24:27;;;;;;;4.43;2.03;;;;;;;11.85;99.04;98151.91;4168839;28;20640;-86
2023/11/15 07:26:49;;;;;;;3.20;1.03;;;;;;;11.87;98.46;98165.69;4189566;28;20708;-85
2023/11/15 07:28:55;;;;;;;5.57;1.53;;;;;;;11.87;99.42;98163.06;4180525;28;20635;-87
2023/11/15 07:30:59;;;;;;;5.10;1.60;;;;;;;11.86;99.68;98169.25;4184660;28;21107;-87
2023/11/15 07:33:03;;;;;;;4.20;1.60;;;;;;;11.88;99.30;98161.31;4184568;28;20628;-86
2023/11/15 07:35:09;;;;;;;7.67;1.80;;;;;;;11.91;100.00;98167.13;4155264;28;20645;-87
2023/11/15 07:37:13;;;;;;;6.33;2.53;;;;;;;11.97;99.12;98168.50;4154518;28;20727;-85
2023/11/15 07:39:18;;;;;;;5.20;1.83;;;;;;;11.96;100.00;98175.47;4182059;28;21183;-86
2023/11/15 07:41:24;;;;;;;4.90;1.60;;;;;;;11.99;98.40;98183.09;4185318;28;20916;-86
2023/11/15 07:43:27;;;;;;;4.50;1.70;;;;;;;12.00;100.00;98182.16;4170348;28;20674;-87
2023/11/15 07:45:33;;;;;;;7.50;1.57;;;;;;;12.02;99.90;98177.66;4181881;28;20632;-86
2023/11/15 07:47:37;;;;;;;4.93;1.67;;;;;;;12.04;99.45;98186.22;4170520;28;20700;-88
2023/11/15 07:49:41;;;;;;;5.90;1.60;;;;;;;12.05;99.71;98182.66;4185883;28;20620;-88
2023/11/15 07:51:46;;;;;;;4.10;1.40;;;;;;;12.04;100.00;98188.84;4170916;28;20631;-87
2023/11/15 07:53:49;;;;;;;6.33;3.73;;;;;;;12.07;99.51;98193.00;4156338;28;20635;-87
2023/11/15 07:55:53;;;;;;;4.90;1.87;;;;;;;12.10;100.00;98201.44;4167344;28;21284;-87
2023/11/15 07:57:57;;;;;;;4.13;1.80;;;;;;;12.10;99.59;98196.22;4158124;28;21382;-87
2023/11/15 08:00:01;;;;;;;3.87;1.70;;;;;;;12.12;98.63;98194.34;4168334;28;20639;-87
2023/11/15 08:02:37;;;;;;;6.70;1.80;;;;;;;12.16;99.07;98201.00;4185705;28;21416;-87
2023/11/15 08:04:59;;;;;;;4.33;2.10;;;;;;;12.20;98.53;98201.63;4185464;28;20629;-87
2023/11/15 08:07:04;;;;;;;6.40;2.23;;;;;;;12.21;100.00;98198.91;4174983;28;20659;-88
2023/11/15 08:09:07;;;;;;;5.30;1.73;;;;;;;12.19;98.91;98189.50;4172282;28;21206;-86
2023/11/15 08:11:11;;;;;;;5.50;1.90;;;;;;;12.25;99.52;98201.19;4174628;28;20620;-86
2023/11/15 08:13:14;;;;;;;5.93;1.70;;;;;;;12.27;99.08;98209.75;4181060;28;20696;-87
2023/11/15 08:15:17;;;;;;;5.47;2.00;;;;;;;12.28;98.33;98214.03;4160444;28;20640;-87
2023/11/15 08:17:21;;;;;;;5.60;1.90;;;;;;;12.23;98.97;98198.78;4175237;28;21042;-86
2023/11/15 08:19:24;;;;;;;4.50;1.70;;;;;;;12.15;99.42;98198.50;4158096;28;20629;-86
2023/11/15 08:21:28;;;;;;;6.07;1.80;;;;;;;12.11;99.96;98204.91;4171830;28;20715;-86
2023/11/15 08:23:33;;;;;;;7.63;2.17;;;;;;;12.11;99.45;98197.91;4173234;28;20641;-87
2023/11/15 08:25:37;;;;;;;8.17;1.93;;;;;;;12.13;98.67;98200.41;4159248;28;20717;-87
2023/11/15 08:27:40;;;;;;;5.83;2.60;;;;;;;12.16;99.68;98202.78;4188900;28;21028;-87
2023/11/15 08:29:43;;;;;;;3.80;1.70;;;;;;;12.18;99.08;98196.50;4177849;28;20683;-87
2023/11/15 08:31:47;;;;;;;5.03;1.97;;;;;;;12.20;99.59;98206.84;4173716;28;20659;-87
2023/11/15 08:33:51;;;;;;;6.60;2.07;;;;;;;12.23;99.20;98207.47;4171396;28;20668;-87
2023/11/15 08:36:13;;;;;;;6.03;2.03;;;;;;;12.24;98.59;98212.59;4172415;28;20639;-87
2023/11/15 08:38:17;;;;;;;8.50;1.70;;;;;;;12.25;99.30;98214.25;4186711;28;21211;-88
2023/11/15 08:40:22;;;;;;;8.67;1.87;;;;;;;12.23;97.50;98211.88;4169185;28;20624;-87
2023/11/15 08:42:31;;;;;;;5.83;2.03;;;;;;;12.20;98.31;98212.91;4172205;28;20616;-87
2023/11/15 08:44:37;;;;;;;4.73;1.73;;;;;;;12.20;99.34;98226.00;4177565;28;20620;-87
2023/11/15 08:46:44;;;;;;;6.13;2.00;;;;;;;12.22;99.12;98221.47;4171187;28;21204;-87
2023/11/15 08:48:51;;;;;;;6.43;1.77;;;;;;;12.23;100.00;98229.19;4173471;28;20711;-88
2023/11/15 08:50:56;;;;;;;6.97;1.97;;;;;;;12.23;99.78;98238.00;4158774;28;20621;-87
2023/11/15 08:52:59;;;;;;;5.93;2.30;;;;;;;12.21;100.00;98239.88;4171695;28;20624;-87
2023/11/15 08:55:23;;;;;;;5.17;1.70;;;;;;;12.19;100.00;98226.91;4169838;28;20644;-87
2023/11/15 08:57:26;;;;;;;5.07;1.50;;;;;;;12.19;100.00;98229.53;4166106;28;20704;-87
2023/11/15 08:59:29;;;;;;;4.30;1.50;;;;;;;12.22;100.00;98231.94;4173846;28;20657;-87
2023/11/15 09:01:51;;;;;;;4.00;1.87;;;;;;;12.24;100.00;98230.88;4185478;28;21173;-87
2023/11/15 09:03:54;;;;;;;5.63;2.10;;;;;;;12.26;100.00;98236.00;4173153;28;20621;-87
2023/11/15 09:06:17;;;;;;;4.40;1.93;;;;;;;12.30;100.00;98238.28;4187397;28;20608;-88
2023/11/15 09:08:39;;;;;;;6.20;2.00;;;;;;;12.33;100.00;98248.53;4187665;28;21170;-88
2023/11/15 09:10:44;;;;;;;5.27;1.77;;;;;;;12.33;100.00;98245.91;4175243;28;20632;-88
2023/11/15 09:13:08;;;;;;;4.93;1.80;;;;;;;12.33;100.00;98266.00;4174362;28;21218;-87
2023/11/15 09:15:11;;;;;;;2.70;1.40;;;;;;;12.35;100.00;98256.25;4187541;28;24394;-88
2023/11/15 09:17:16;;;;;;;4.60;2.13;;;;;;;12.39;100.00;98255.09;4152082;28;20654;-87
2023/11/15 09:19:20;;;;;;;7.23;2.10;;;;;;;12.43;100.00;98261.75;4147393;28;20636;-87
2023/11/15 09:21:25;;;;;;;4.07;1.70;;;;;;;12.47;100.00;98260.59;4156220;28;21079;-87
2023/11/15 09:23:29;;;;;;;6.83;2.10;;;;;;;12.52;98.73;98255.84;4158260;28;20691;-87
2023/11/15 09:25:36;;;;;;;3.30;1.67;;;;;;;12.51;99.80;98255.03;4170358;28;21086;-87
2023/11/15 09:27:42;;;;;;;6.13;1.70;;;;;;;12.57;99.53;98258.97;4168359;28;22082;-87
2023/11/15 09:29:46;;;;;;;4.67;1.67;;;;;;;12.61;98.59;98258.63;4172905;28;21257;-87
2023/11/15 09:31:49;;;;;;;3.67;1.60;;;;;;;12.66;99.19;98266.13;4158219;28;20711;-87
2023/11/15 09:33:53;;;;;;;7.97;1.67;;;;;;;12.68;98.36;98264.25;4171762;28;20664;-87
2023/11/15 09:35:56;;;;;;;8.13;2.30;;;;;;;12.69;97.60;98272.00;4155881;28;20627;-87
2023/11/15 09:38:04;;;;;;;6.83;1.50;;;;;;;12.72;97.71;98269.16;4172263;28;20692;-88
2023/11/15 09:40:11;;;;;;;3.43;1.40;;;;;;;12.69;97.03;98270.22;4160884;28;20630;-87
2023/11/15 09:42:19;;;;;;;6.57;2.10;;;;;;;12.77;97.35;98280.09;4170889;28;21405;-87
2023/11/15 09:44:24;;;;;;;5.27;1.43;;;;;;;12.77;97.22;98280.94;4184198;28;20632;-87
2023/11/15 09:46:46;;;;;;;6.47;1.50;;;;;;;12.73;96.87;98279.50;4184258;28;20620;-87
2023/11/15 09:48:51;;;;;;;3.17;1.20;;;;;;;12.69;97.13;98282.47;4170550;28;21146;-88
2023/11/15 09:51:04;;;;;;;3.17;1.33;;;;;;;12.71;96.40;98283.19;4170420;28;21079;-88